Time;durP1;ratioP1;P1;durP2;ratioP2;P2;SDS_P1;SDS_P2;PMS_P1;PMS_P2;Temp;Humidity;BMP_temperature;BMP_pressure;BME280_temperature;BME280_humidity;BME280_pressure;Samples;Min_cycle;Max_cycle;Signal;HPM_P1;HPM_P2
2023/04/26 00:02:10;;;;;;;7.90;2.17;;;;;;;;;;4983925;28;20034;-58
2023/04/26 00:04:37;;;;;;;6.63;2.40;;;;;;;;;;4982583;28;20046;-58
2023/04/26 00:07:03;;;;;;;4.90;1.60;;;;;;;;;;4982915;28;20046;-58
2023/04/26 00:09:30;;;;;;;8.18;1.50;;;;;;;;;;4983569;28;20065;-58
2023/04/26 00:11:56;;;;;;;6.32;1.60;;;;;;;;;;4982076;28;20055;-57
2023/04/26 00:14:22;;;;;;;9.05;1.50;;;;;;;;;;4979682;28;20062;-57
2023/04/26 00:16:48;;;;;;;7.43;1.73;;;;;;;;;;4983117;28;20491;-59
2023/04/26 00:19:15;;;;;;;9.20;1.70;;;;;;;;;;4982949;28;20038;-57
2023/04/26 00:21:41;;;;;;;9.20;2.28;;;;;;;;;;4973858;28;20169;-57
2023/04/26 00:24:08;;;;;;;9.23;2.65;;;;;;;;;;4983910;28;20044;-57
2023/04/26 00:26:34;;;;;;;7.97;1.67;;;;;;;;;;4982194;28;20069;-57
2023/04/26 00:29:02;;;;;;;6.68;1.67;;;;;;;;;;4981722;28;20411;-57
2023/04/26 00:31:28;;;;;;;7.80;1.63;;;;;;;;;;4965706;28;20046;-62
2023/04/26 00:33:54;;;;;;;4.47;1.55;;;;;;;;;;4982140;28;20114;-58
2023/04/26 00:36:20;;;;;;;9.00;1.70;;;;;;;;;;4982891;28;20511;-58
2023/04/26 00:38:46;;;;;;;5.38;1.42;;;;;;;;;;4983457;28;20035;-58
2023/04/26 00:41:13;;;;;;;6.03;1.63;;;;;;;;;;4976677;28;20493;-58
2023/04/26 00:43:39;;;;;;;7.72;1.40;;;;;;;;;;4977460;28;20421;-58
2023/04/26 00:46:07;;;;;;;8.65;1.65;;;;;;;;;;4983519;28;20109;-58
2023/04/26 00:48:33;;;;;;;13.63;1.80;;;;;;;;;;4985651;28;20495;-58
2023/04/26 00:51:00;;;;;;;9.43;1.90;;;;;;;;;;4977728;28;20048;-58
2023/04/26 00:53:26;;;;;;;8.68;2.38;;;;;;;;;;4970109;28;20073;-58
2023/04/26 00:55:53;;;;;;;4.78;1.60;;;;;;;;;;4986143;28;20567;-58
2023/04/26 00:58:19;;;;;;;4.13;1.88;;;;;;;;;;4986916;28;20065;-58
2023/04/26 01:00:45;;;;;;;11.20;1.95;;;;;;;;;;4982858;28;20054;-58
2023/04/26 01:03:12;;;;;;;4.70;1.73;;;;;;;;;;4980448;28;20069;-58
2023/04/26 01:05:38;;;;;;;9.57;2.00;;;;;;;;;;4982682;28;20054;-58
2023/04/26 01:08:04;;;;;;;7.13;1.80;;;;;;;;;;4981429;28;20047;-58
2023/04/26 01:10:32;;;;;;;4.57;1.52;;;;;;;;;;5051861;23;20050;-67
2023/04/26 01:12:59;;;;;;;7.75;1.63;;;;;;;;;;4978617;28;20693;-67
2023/04/26 01:15:29;;;;;;;7.80;1.75;;;;;;;;;;4974543;28;20046;-66
2023/04/26 01:17:55;;;;;;;6.53;1.70;;;;;;;;;;4969211;28;20046;-66
2023/04/26 01:20:21;;;;;;;6.30;1.55;;;;;;;;;;4976024;28;20038;-65
2023/04/26 01:22:47;;;;;;;6.47;2.10;;;;;;;;;;4972379;28;20051;-65
2023/04/26 01:25:15;;;;;;;4.35;1.60;;;;;;;;;;4971247;28;20057;-66
2023/04/26 01:27:41;;;;;;;5.97;1.90;;;;;;;;;;4985428;28;20096;-65
2023/04/26 01:30:08;;;;;;;8.93;1.63;;;;;;;;;;4970522;28;20085;-65
2023/04/26 01:32:34;;;;;;;6.63;1.65;;;;;;;;;;4970851;28;20051;-65
2023/04/26 01:35:01;;;;;;;7.03;1.38;;;;;;;;;;4971552;28;20030;-64
2023/04/26 01:37:27;;;;;;;5.32;1.65;;;;;;;;;;4971850;28;20125;-65
2023/04/26 01:39:53;;;;;;;5.70;1.50;;;;;;;;;;4981603;28;20046;-65
2023/04/26 01:42:19;;;;;;;8.60;1.35;;;;;;;;;;4964539;28;20485;-65
2023/04/26 01:44:45;;;;;;;4.50;1.48;;;;;;;;;;4984517;28;20046;-65
2023/04/26 01:47:11;;;;;;;5.15;1.30;;;;;;;;;;4968674;28;20132;-64
2023/04/26 01:49:38;;;;;;;7.00;1.55;;;;;;;;;;4953161;28;20049;-65
2023/04/26 01:52:04;;;;;;;7.97;1.63;;;;;;;;;;4983633;28;20046;-65
2023/04/26 01:54:30;;;;;;;4.55;1.38;;;;;;;;;;4984664;28;20084;-67
2023/04/26 01:56:56;;;;;;;5.13;1.20;;;;;;;;;;4983666;28;20516;-65
2023/04/26 01:59:22;;;;;;;5.55;1.50;;;;;;;;;;4985802;28;20038;-65
2023/04/26 02:02:12;;;;;;;5.88;1.38;;;;;;;;;;4985642;28;20056;-66
2023/04/26 02:04:38;;;;;;;5.85;1.30;;;;;;;;;;4984502;28;20042;-65
2023/04/26 02:07:05;;;;;;;4.88;1.80;;;;;;;;;;4983992;28;20057;-65
2023/04/26 02:09:31;;;;;;;10.13;1.58;;;;;;;;;;4985503;28;20129;-65
2023/04/26 02:11:57;;;;;;;7.45;1.33;;;;;;;;;;4985270;28;20515;-65
2023/04/26 02:14:23;;;;;;;20.55;2.65;;;;;;;;;;4977694;28;20042;-66
2023/04/26 02:16:50;;;;;;;7.50;1.40;;;;;;;;;;4984793;28;20564;-65
2023/04/26 02:19:16;;;;;;;14.45;1.67;;;;;;;;;;4982407;28;20518;-65
2023/04/26 02:21:50;;;;;;;33.88;3.40;;;;;;;;;;4970170;28;20110;-65
2023/04/26 02:24:16;;;;;;;6.50;1.42;;;;;;;;;;4968234;28;20039;-65
2023/04/26 02:26:42;;;;;;;7.80;1.63;;;;;;;;;;4974038;28;20053;-65
2023/04/26 02:29:08;;;;;;;6.47;1.70;;;;;;;;;;4982430;28;20563;-65
2023/04/26 02:31:34;;;;;;;5.20;1.35;;;;;;;;;;4984479;28;20050;-65
2023/04/26 02:34:01;;;;;;;5.70;1.23;;;;;;;;;;4984125;28;20042;-66
2023/04/26 02:36:27;;;;;;;3.97;1.15;;;;;;;;;;4985223;28;20039;-65
2023/04/26 02:38:54;;;;;;;6.10;1.20;;;;;;;;;;4980919;28;20058;-65
2023/04/26 02:41:20;;;;;;;5.93;1.50;;;;;;;;;;4982711;28;20060;-65
2023/04/26 02:43:46;;;;;;;7.65;1.40;;;;;;;;;;4984155;28;20042;-65
2023/04/26 02:46:13;;;;;;;5.15;1.40;;;;;;;;;;4973103;28;20051;-65
2023/04/26 02:48:39;;;;;;;4.40;0.95;;;;;;;;;;4982626;28;20404;-66
2023/04/26 02:51:06;;;;;;;5.72;0.95;;;;;;;;;;4984513;28;20073;-68
2023/04/26 02:53:32;;;;;;;6.05;1.05;;;;;;;;;;4984307;28;20046;-68
2023/04/26 02:55:59;;;;;;;6.88;1.40;;;;;;;;;;4984328;28;20045;-67
2023/04/26 02:58:25;;;;;;;5.82;2.08;;;;;;;;;;4985193;28;20545;-66
2023/04/26 03:00:53;;;;;;;5.00;1.10;;;;;;;;;;4982530;28;20047;-67
2023/04/26 03:03:19;;;;;;;7.13;1.60;;;;;;;;;;4979408;28;20050;-67
2023/04/26 03:05:45;;;;;;;5.28;1.30;;;;;;;;;;4983794;28;20042;-67
2023/04/26 03:08:12;;;;;;;7.07;1.20;;;;;;;;;;4983411;28;20043;-66
2023/04/26 03:10:38;;;;;;;5.07;1.40;;;;;;;;;;4983826;28;20072;-67
2023/04/26 03:13:04;;;;;;;9.55;1.13;;;;;;;;;;4984075;28;20433;-67
2023/04/26 03:15:30;;;;;;;3.35;1.27;;;;;;;;;;4966582;28;20101;-67
2023/04/26 03:17:57;;;;;;;7.65;1.42;;;;;;;;;;4979663;28;20074;-68
2023/04/26 03:20:24;;;;;;;4.22;1.58;;;;;;;;;;4957513;28;20074;-69
2023/04/26 03:22:50;;;;;;;8.70;1.42;;;;;;;;;;4981478;28;20104;-68
2023/04/26 03:25:16;;;;;;;7.85;1.33;;;;;;;;;;4951113;28;20074;-67
2023/04/26 03:27:42;;;;;;;27.60;2.25;;;;;;;;;;4963083;28;20376;-66
2023/04/26 03:30:09;;;;;;;8.27;1.63;;;;;;;;;;4983649;28;20053;-66
2023/04/26 03:32:35;;;;;;;5.15;1.27;;;;;;;;;;4965841;28;20580;-66
2023/04/26 03:35:01;;;;;;;7.25;1.50;;;;;;;;;;4983611;28;20133;-66
2023/04/26 03:37:27;;;;;;;8.32;1.58;;;;;;;;;;4983429;28;20042;-67
2023/04/26 03:39:53;;;;;;;6.07;1.50;;;;;;;;;;4983917;28;20049;-66
2023/04/26 03:42:20;;;;;;;4.43;1.48;;;;;;;;;;4977029;28;20035;-68
2023/04/26 03:44:46;;;;;;;3.97;1.60;;;;;;;;;;4980445;28;20046;-68
2023/04/26 03:47:14;;;;;;;4.72;1.42;;;;;;;;;;4974284;28;20039;-68
2023/04/26 03:49:41;;;;;;;5.53;1.42;;;;;;;;;;4979514;28;20088;-67
2023/04/26 03:52:07;;;;;;;3.45;1.40;;;;;;;;;;4984195;28;20065;-67
2023/04/26 03:54:34;;;;;;;13.57;2.10;;;;;;;;;;4983681;28;20749;-67
2023/04/26 03:57:00;;;;;;;5.93;1.38;;;;;;;;;;4983474;28;20050;-65
2023/04/26 03:59:26;;;;;;;5.75;1.35;;;;;;;;;;4984297;28;20153;-66
2023/04/26 04:01:52;;;;;;;4.82;1.55;;;;;;;;;;4983084;28;20045;-65
2023/04/26 04:04:18;;;;;;;6.40;1.92;;;;;;;;;;4982933;28;20354;-65
2023/04/26 04:06:45;;;;;;;5.72;1.58;;;;;;;;;;4972420;28;20042;-66
2023/04/26 04:09:11;;;;;;;6.68;1.50;;;;;;;;;;4983494;28;20077;-65
2023/04/26 04:11:37;;;;;;;7.10;1.48;;;;;;;;;;4979707;28;20508;-66
2023/04/26 04:14:04;;;;;;;7.15;2.22;;;;;;;;;;4965894;28;20054;-67
2023/04/26 04:16:30;;;;;;;7.57;1.58;;;;;;;;;;4983506;28;20057;-65
2023/04/26 04:18:57;;;;;;;8.50;1.52;;;;;;;;;;4972738;28;20500;-66
2023/04/26 04:21:23;;;;;;;10.77;2.05;;;;;;;;;;4987130;28;20074;-66
2023/04/26 04:23:49;;;;;;;3.83;1.60;;;;;;;;;;4987021;28;20522;-67
2023/04/26 04:26:16;;;;;;;8.50;1.80;;;;;;;;;;4986711;28;20869;-65
2023/04/26 04:28:43;;;;;;;5.47;1.52;;;;;;;;;;4986325;28;20046;-66
2023/04/26 04:31:10;;;;;;;7.28;1.58;;;;;;;;;;4986733;28;20093;-67
2023/04/26 04:33:36;;;;;;;5.68;1.27;;;;;;;;;;4968431;28;20065;-66
2023/04/26 04:36:02;;;;;;;6.25;1.38;;;;;;;;;;4976860;28;20063;-66
2023/04/26 04:38:29;;;;;;;8.60;3.55;;;;;;;;;;4982989;28;20042;-66
2023/04/26 04:40:55;;;;;;;7.72;1.80;;;;;;;;;;4987193;28;20053;-67
2023/04/26 04:43:22;;;;;;;4.80;1.38;;;;;;;;;;4987039;28;20092;-66
2023/04/26 04:45:48;;;;;;;6.75;1.67;;;;;;;;;;4986876;28;20050;-65
2023/04/26 04:48:15;;;;;;;6.40;1.60;;;;;;;;;;4974852;28;20089;-66
2023/04/26 04:50:41;;;;;;;5.45;1.80;;;;;;;;;;4986690;28;20054;-66
2023/04/26 04:53:08;;;;;;;8.55;2.08;;;;;;;;;;4986518;28;20050;-66
2023/04/26 04:55:35;;;;;;;5.88;1.55;;;;;;;;;;4987051;28;20487;-66
2023/04/26 04:58:02;;;;;;;7.90;1.60;;;;;;;;;;4978684;28;20113;-66
2023/04/26 05:00:29;;;;;;;8.27;1.60;;;;;;;;;;4979467;28;20077;-66
2023/04/26 05:02:55;;;;;;;5.18;1.52;;;;;;;;;;4978610;28;20069;-68
2023/04/26 05:05:22;;;;;;;11.93;2.05;;;;;;;;;;4964298;28;20049;-66
2023/04/26 05:07:48;;;;;;;4.65;1.70;;;;;;;;;;4982067;28;20042;-64
2023/04/26 05:10:14;;;;;;;11.02;2.75;;;;;;;;;;4955811;28;20042;-68
2023/04/26 05:12:41;;;;;;;6.57;2.00;;;;;;;;;;4984302;28;20046;-65
2023/04/26 05:15:07;;;;;;;8.57;1.60;;;;;;;;;;4981519;28;20039;-65
2023/04/26 05:17:33;;;;;;;5.88;1.58;;;;;;;;;;4985149;28;20045;-65
2023/04/26 05:20:02;;;;;;;6.32;1.50;;;;;;;;;;4980182;28;20050;-65
2023/04/26 05:22:29;;;;;;;6.22;1.40;;;;;;;;;;4974705;28;20085;-65
2023/04/26 05:24:55;;;;;;;6.30;1.63;;;;;;;;;;4976029;28;20559;-65
2023/04/26 05:27:21;;;;;;;7.63;2.63;;;;;;;;;;4978134;28;20070;-65
2023/04/26 05:29:47;;;;;;;6.63;1.58;;;;;;;;;;4983157;28;20054;-66
2023/04/26 05:32:13;;;;;;;5.15;1.38;;;;;;;;;;4978662;28;20061;-67
2023/04/26 05:34:40;;;;;;;10.20;1.42;;;;;;;;;;4971444;28;20047;-66
2023/04/26 05:37:06;;;;;;;3.72;1.45;;;;;;;;;;4974959;28;20046;-66
2023/04/26 05:39:32;;;;;;;10.07;2.20;;;;;;;;;;4954490;28;20046;-66
2023/04/26 05:41:58;;;;;;;7.18;1.52;;;;;;;;;;4976447;28;20042;-67
2023/04/26 05:44:24;;;;;;;3.72;1.48;;;;;;;;;;4973520;28;20053;-66
2023/04/26 05:46:50;;;;;;;12.18;1.23;;;;;;;;;;4977088;28;20053;-64
2023/04/26 05:49:17;;;;;;;4.10;1.40;;;;;;;;;;4977106;28;20069;-65
2023/04/26 05:51:43;;;;;;;5.25;1.42;;;;;;;;;;4976938;28;20511;-64
2023/04/26 05:54:09;;;;;;;7.70;2.13;;;;;;;;;;4984542;28;20125;-64
2023/04/26 05:56:35;;;;;;;2.90;0.90;;;;;;;;;;4981971;28;20053;-62
2023/04/26 05:59:01;;;;;;;5.63;1.45;;;;;;;;;;4986759;28;20046;-66
2023/04/26 06:01:27;;;;;;;4.25;1.00;;;;;;;;;;4987579;28;20048;-66
2023/04/26 06:03:53;;;;;;;5.22;1.25;;;;;;;;;;4984953;28;20050;-65
2023/04/26 06:06:19;;;;;;;8.43;1.50;;;;;;;;;;4987055;28;20046;-64
2023/04/26 06:08:46;;;;;;;4.57;1.20;;;;;;;;;;4987016;28;20042;-66
2023/04/26 06:11:12;;;;;;;3.88;1.35;;;;;;;;;;4986254;28;20090;-65
2023/04/26 06:13:38;;;;;;;4.95;1.23;;;;;;;;;;4986553;28;20042;-65
2023/04/26 06:16:04;;;;;;;7.65;1.58;;;;;;;;;;4986266;28;20133;-65
2023/04/26 06:18:30;;;;;;;5.53;1.10;;;;;;;;;;4986164;28;20038;-65
2023/04/26 06:20:56;;;;;;;6.97;1.40;;;;;;;;;;4986383;28;20515;-64
2023/04/26 06:23:23;;;;;;;5.75;1.65;;;;;;;;;;4985822;28;20047;-64
2023/04/26 06:25:49;;;;;;;8.43;1.25;;;;;;;;;;4985602;28;20103;-65
2023/04/26 06:28:15;;;;;;;4.18;0.88;;;;;;;;;;4986325;28;20042;-64
2023/04/26 06:30:42;;;;;;;6.00;1.40;;;;;;;;;;4981225;28;20116;-64
2023/04/26 06:33:08;;;;;;;4.32;1.40;;;;;;;;;;4984592;28;20837;-63
2023/04/26 06:35:39;;;;;;;5.80;1.30;;;;;;;;;;4986577;28;20090;-63
2023/04/26 06:38:06;;;;;;;6.55;1.23;;;;;;;;;;4986184;28;20496;-63
2023/04/26 06:40:32;;;;;;;10.20;2.17;;;;;;;;;;4986631;28;20046;-62
2023/04/26 06:42:58;;;;;;;10.75;1.23;;;;;;;;;;4985960;28;20054;-63
2023/04/26 06:45:24;;;;;;;6.07;1.02;;;;;;;;;;4986742;28;20050;-63
2023/04/26 06:47:52;;;;;;;3.53;1.17;;;;;;;;;;4985373;28;20046;-63
2023/04/26 06:50:18;;;;;;;5.45;1.10;;;;;;;;;;4985958;28;20061;-63
2023/04/26 06:52:44;;;;;;;7.20;1.23;;;;;;;;;;4986174;28;20042;-63
2023/04/26 06:55:10;;;;;;;3.15;1.13;;;;;;;;;;4984374;28;20113;-63
2023/04/26 06:57:36;;;;;;;5.13;1.60;;;;;;;;;;4986090;28;20054;-63
2023/04/26 07:00:03;;;;;;;3.95;1.40;;;;;;;;;;4984750;28;20540;-63
2023/04/26 07:02:29;;;;;;;8.38;1.83;;;;;;;;;;4981107;28;20042;-65
2023/04/26 07:04:56;;;;;;;9.05;1.88;;;;;;;;;;4980085;28;20505;-63
2023/04/26 07:07:22;;;;;;;2.92;1.23;;;;;;;;;;4970045;28;20492;-62
2023/04/26 07:09:49;;;;;;;7.05;1.30;;;;;;;;;;4979692;28;20090;-63
2023/04/26 07:12:15;;;;;;;6.25;1.70;;;;;;;;;;4971718;28;20451;-64
2023/04/26 07:14:42;;;;;;;3.53;1.25;;;;;;;;;;4967083;28;20476;-64
2023/04/26 07:17:08;;;;;;;4.63;1.30;;;;;;;;;;4973214;28;20088;-71
2023/04/26 07:19:35;;;;;;;5.70;1.42;;;;;;;;;;4975384;28;20051;-66
2023/04/26 07:22:01;;;;;;;12.60;1.52;;;;;;;;;;4966450;28;20042;-67
2023/04/26 07:24:27;;;;;;;5.60;1.52;;;;;;;;;;4965310;28;20034;-67
2023/04/26 07:26:53;;;;;;;6.35;1.40;;;;;;;;;;4976315;28;20118;-67
2023/04/26 07:29:20;;;;;;;6.10;1.40;;;;;;;;;;4973253;28;20576;-65
2023/04/26 07:31:46;;;;;;;5.22;1.55;;;;;;;;;;4976556;28;20046;-66
2023/04/26 07:34:12;;;;;;;4.30;1.40;;;;;;;;;;4971840;28;20089;-67
2023/04/26 07:36:38;;;;;;;6.40;1.50;;;;;;;;;;4972425;28;20046;-66
2023/04/26 07:39:05;;;;;;;5.78;1.40;;;;;;;;;;4967200;28;20046;-68
2023/04/26 07:41:31;;;;;;;7.38;1.30;;;;;;;;;;4973177;28;20125;-68
2023/04/26 07:43:58;;;;;;;7.28;1.65;;;;;;;;;;4953580;28;20050;-68
2023/04/26 07:46:24;;;;;;;7.25;1.50;;;;;;;;;;4983274;28;20069;-68
2023/04/26 07:48:50;;;;;;;6.78;1.52;;;;;;;;;;4972091;28;20488;-67
2023/04/26 07:51:16;;;;;;;7.68;1.42;;;;;;;;;;4983528;28;20042;-68
2023/04/26 07:53:42;;;;;;;3.95;1.65;;;;;;;;;;4963589;28;20046;-68
2023/04/26 07:56:09;;;;;;;6.53;1.30;;;;;;;;;;4978369;28;20576;-67
2023/04/26 07:58:35;;;;;;;5.65;2.30;;;;;;;;;;4979643;28;20088;-64
2023/04/26 08:01:03;;;;;;;6.05;1.45;;;;;;;;;;4980551;28;20039;-77
2023/04/26 08:03:29;;;;;;;11.13;1.88;;;;;;;;;;4972728;28;20400;-66
2023/04/26 08:05:55;;;;;;;6.15;1.20;;;;;;;;;;4969239;28;20125;-66
2023/04/26 08:08:22;;;;;;;6.18;1.20;;;;;;;;;;4974294;28;20047;-66
2023/04/26 08:10:48;;;;;;;5.65;1.13;;;;;;;;;;4969446;28;20067;-66
2023/04/26 08:13:14;;;;;;;3.80;1.33;;;;;;;;;;4975244;28;20077;-65
2023/04/26 08:15:40;;;;;;;3.38;1.33;;;;;;;;;;4982522;28;20122;-64
2023/04/26 08:18:07;;;;;;;2.38;0.98;;;;;;;;;;4978403;28;20034;-65
2023/04/26 08:20:33;;;;;;;7.25;1.63;;;;;;;;;;4981753;28;20038;-65
2023/04/26 08:22:59;;;;;;;6.18;1.50;;;;;;;;;;4979162;28;20054;-64
2023/04/26 08:25:25;;;;;;;5.90;1.40;;;;;;;;;;4983929;28;20129;-65
2023/04/26 08:27:52;;;;;;;4.18;1.35;;;;;;;;;;4983310;28;20102;-65
2023/04/26 08:30:18;;;;;;;5.15;1.20;;;;;;;;;;4982305;28;20407;-65
2023/04/26 08:32:45;;;;;;;4.80;1.25;;;;;;;;;;4981154;28;20068;-65
2023/04/26 08:35:11;;;;;;;20.15;1.63;;;;;;;;;;4983357;28;20034;-65
2023/04/26 08:37:37;;;;;;;3.83;1.13;;;;;;;;;;4983020;28;20042;-65
2023/04/26 08:40:07;;;;;;;2.88;1.20;;;;;;;;;;4971751;28;20403;-65
2023/04/26 08:42:33;;;;;;;6.43;1.65;;;;;;;;;;4983604;28;20078;-66
2023/04/26 08:45:01;;;;;;;9.68;1.50;;;;;;;;;;4975516;28;20046;-65
2023/04/26 08:47:30;;;;;;;3.17;1.23;;;;;;;;;;4982215;28;20177;-65
2023/04/26 08:50:01;;;;;;;4.22;1.23;;;;;;;;;;4983155;28;20053;-65
2023/04/26 08:52:28;;;;;;;5.03;1.27;;;;;;;;;;4983612;28;20377;-66
2023/04/26 08:54:54;;;;;;;3.22;0.80;;;;;;;;;;4976587;28;20109;-67
2023/04/26 08:57:21;;;;;;;4.97;1.10;;;;;;;;;;4983289;28;20044;-65
2023/04/26 08:59:47;;;;;;;3.13;0.98;;;;;;;;;;4972942;28;20050;-66
2023/04/26 09:02:17;;;;;;;3.53;0.90;;;;;;;;;;4982288;28;20404;-66
2023/04/26 09:04:44;;;;;;;2.92;1.00;;;;;;;;;;4982886;28;20046;-67
2023/04/26 09:07:12;;;;;;;4.53;1.20;;;;;;;;;;4985802;28;20048;-66
2023/04/26 09:09:41;;;;;;;6.63;1.30;;;;;;;;;;4986158;28;20160;-64
2023/04/26 09:12:07;;;;;;;12.13;1.67;;;;;;;;;;4984893;28;20054;-65
2023/04/26 09:14:34;;;;;;;3.35;1.40;;;;;;;;;;4986142;28;20591;-66
2023/04/26 09:17:00;;;;;;;4.30;1.50;;;;;;;;;;4984351;28;20397;-65
2023/04/26 09:19:35;;;;;;;3.28;1.10;;;;;;;;;;4986721;28;20043;-65
2023/04/26 09:22:02;;;;;;;5.53;1.35;;;;;;;;;;4986372;28;20188;-65
2023/04/26 09:24:28;;;;;;;2.85;1.30;;;;;;;;;;4984488;28;20042;-65
2023/04/26 09:27:02;;;;;;;5.53;1.42;;;;;;;;;;4985302;28;20532;-65
2023/04/26 09:29:28;;;;;;;4.22;1.20;;;;;;;;;;4980814;28;20046;-64
2023/04/26 09:31:57;;;;;;;9.77;1.30;;;;;;;;;;4977721;28;20055;-65
2023/04/26 09:34:23;;;;;;;5.72;1.65;;;;;;;;;;4983313;28;20396;-65
2023/04/26 09:36:51;;;;;;;6.40;1.50;;;;;;;;;;4968278;28;20058;-65
2023/04/26 09:39:31;;;;;;;6.70;1.80;;;;;;;;;;4979448;28;20480;-65
2023/04/26 09:41:57;;;;;;;8.25;1.00;;;;;;;;;;4971056;28;20585;-65
2023/04/26 09:44:24;;;;;;;3.42;1.10;;;;;;;;;;4983985;28;20030;-65
2023/04/26 09:46:58;;;;;;;8.88;1.42;;;;;;;;;;4974835;28;20072;-65
2023/04/26 09:49:26;;;;;;;8.23;1.35;;;;;;;;;;4981087;28;20054;-65
2023/04/26 09:52:02;;;;;;;5.45;1.40;;;;;;;;;;4980983;28;20054;-65
2023/04/26 09:54:37;;;;;;;6.68;2.08;;;;;;;;;;4980434;28;20152;-64
2023/04/26 09:57:04;;;;;;;5.32;2.00;;;;;;;;;;4980073;28;20085;-66
2023/04/26 09:59:40;;;;;;;5.88;1.52;;;;;;;;;;4973489;28;20037;-65
2023/04/26 10:02:10;;;;;;;4.82;1.40;;;;;;;;;;4980839;28;20180;-65
2023/04/26 10:04:36;;;;;;;6.45;2.08;;;;;;;;;;4982876;28;20084;-66
2023/04/26 10:07:03;;;;;;;4.68;1.60;;;;;;;;;;4976564;28;20047;-65
2023/04/26 10:09:30;;;;;;;11.77;1.73;;;;;;;;;;4974578;28;20412;-64
2023/04/26 10:11:58;;;;;;;9.15;1.70;;;;;;;;;;4981946;28;20061;-60
2023/04/26 10:14:25;;;;;;;7.00;2.50;;;;;;;;;;4968746;28;20046;-61
2023/04/26 10:16:52;;;;;;;4.78;1.58;;;;;;;;;;4969304;28;20061;-62
2023/04/26 10:19:19;;;;;;;7.72;1.90;;;;;;;;;;4965472;28;20061;-64
2023/04/26 10:21:46;;;;;;;4.25;1.70;;;;;;;;;;4982053;28;20113;-65
2023/04/26 10:24:12;;;;;;;7.93;1.88;;;;;;;;;;4972851;28;21563;-65
2023/04/26 10:26:48;;;;;;;7.43;1.70;;;;;;;;;;4978987;28;20480;-65
2023/04/26 10:29:15;;;;;;;11.90;2.13;;;;;;;;;;4963150;28;20057;-65
2023/04/26 10:32:01;;;;;;;8.43;1.90;;;;;;;;;;4971083;28;20058;-64
2023/04/26 10:34:27;;;;;;;5.30;1.80;;;;;;;;;;4973619;28;20042;-65
2023/04/26 10:37:19;;;;;;;6.90;1.67;;;;;;;;;;4971914;28;20042;-64
2023/04/26 10:39:47;;;;;;;6.43;1.48;;;;;;;;;;4971731;28;20121;-65
2023/04/26 10:42:21;;;;;;;6.47;1.80;;;;;;;;;;4962574;28;20432;-65
2023/04/26 10:44:48;;;;;;;5.10;1.73;;;;;;;;;;4973225;28;20700;-64
2023/04/26 10:47:26;;;;;;;7.28;1.58;;;;;;;;;;4961339;28;20050;-64
2023/04/26 10:49:52;;;;;;;8.60;1.70;;;;;;;;;;4975823;28;20051;-64
2023/04/26 10:52:21;;;;;;;13.00;2.75;;;;;;;;;;4973850;28;20046;-64
2023/04/26 10:54:49;;;;;;;5.55;1.70;;;;;;;;;;4981133;28;20104;-64
2023/04/26 10:57:16;;;;;;;7.13;1.33;;;;;;;;;;4977304;28;20114;-63
2023/04/26 11:00:01;;;;;;;6.93;1.70;;;;;;;;;;4964385;28;20058;-64
2023/04/26 11:02:45;;;;;;;6.80;1.67;;;;;;;;;;4975615;28;20463;-64
2023/04/26 11:05:31;;;;;;;4.97;1.65;;;;;;;;;;4967508;28;20160;-64
2023/04/26 11:08:05;;;;;;;7.75;1.95;;;;;;;;;;4972451;28;20082;-63
2023/04/26 11:10:32;;;;;;;6.97;1.70;;;;;;;;;;4981675;28;20065;-64
2023/04/26 11:13:02;;;;;;;5.97;1.50;;;;;;;;;;4983628;28;20396;-64
2023/04/26 11:15:29;;;;;;;5.72;1.55;;;;;;;;;;4983146;28;20050;-64
2023/04/26 11:17:55;;;;;;;2.72;1.65;;;;;;;;;;4982616;28;20068;-64
2023/04/26 11:20:21;;;;;;;6.80;1.40;;;;;;;;;;4983366;28;20050;-63
2023/04/26 11:22:47;;;;;;;6.47;1.42;;;;;;;;;;4983306;28;20053;-64
2023/04/26 11:25:14;;;;;;;11.15;1.95;;;;;;;;;;4971099;28;20050;-64
2023/04/26 11:27:42;;;;;;;3.70;1.42;;;;;;;;;;4981842;28;20395;-64
2023/04/26 11:30:09;;;;;;;5.45;1.52;;;;;;;;;;4958918;28;20113;-63
2023/04/26 11:32:35;;;;;;;5.05;1.40;;;;;;;;;;4984625;28;20512;-64
2023/04/26 11:35:01;;;;;;;10.52;1.65;;;;;;;;;;4985577;28;20053;-63
2023/04/26 11:37:27;;;;;;;4.90;1.40;;;;;;;;;;4966813;28;20097;-62
2023/04/26 11:39:53;;;;;;;3.60;1.40;;;;;;;;;;4981549;28;20093;-63
2023/04/26 11:42:24;;;;;;;3.53;1.38;;;;;;;;;;4983952;28;20113;-64
2023/04/26 11:44:51;;;;;;;7.22;1.50;;;;;;;;;;4981772;28;20709;-62
2023/04/26 11:47:18;;;;;;;4.13;1.75;;;;;;;;;;4981625;28;20114;-63
2023/04/26 11:49:44;;;;;;;8.20;1.50;;;;;;;;;;4966404;28;20500;-63
2023/04/26 11:52:10;;;;;;;6.05;1.83;;;;;;;;;;4981412;28;20165;-63
2023/04/26 11:54:36;;;;;;;9.95;1.40;;;;;;;;;;4982104;28;21640;-62
2023/04/26 11:57:16;;;;;;;6.47;1.80;;;;;;;;;;4964980;28;20080;-63
2023/04/26 11:59:42;;;;;;;7.63;1.90;;;;;;;;;;4983295;28;20038;-63
2023/04/26 12:02:10;;;;;;;6.72;1.60;;;;;;;;;;4978508;28;20662;-64
2023/04/26 12:04:38;;;;;;;9.60;1.85;;;;;;;;;;4981444;28;20039;-64
2023/04/26 12:07:05;;;;;;;;;;;;;;;;;;4984104;28;20381;-64
2023/04/26 12:09:32;;;;;;;6.15;2.10;;;;;;;;;;4983984;28;19929;-64
2023/04/26 12:11:59;;;;;;;4.20;1.55;;;;;;;;;;4982115;28;20054;-64
2023/04/26 12:14:32;;;;;;;5.35;1.70;;;;;;;;;;4983115;28;20118;-64
2023/04/26 12:17:00;;;;;;;6.70;2.00;;;;;;;;;;4972379;28;20046;-64
2023/04/26 12:19:26;;;;;;;7.03;2.10;;;;;;;;;;4980677;28;20176;-65
2023/04/26 12:21:53;;;;;;;4.22;1.90;;;;;;;;;;4963648;28;20056;-65
2023/04/26 12:24:21;;;;;;;6.97;1.67;;;;;;;;;;4965691;28;20046;-65
2023/04/26 12:26:47;;;;;;;4.65;1.80;;;;;;;;;;4983528;28;20047;-64
2023/04/26 12:29:14;;;;;;;7.70;1.55;;;;;;;;;;4983597;28;20051;-64
2023/04/26 12:31:40;;;;;;;7.13;2.00;;;;;;;;;;4974781;28;20046;-64
2023/04/26 12:34:07;;;;;;;6.53;2.08;;;;;;;;;;4982468;28;20093;-63
2023/04/26 12:36:33;;;;;;;8.25;1.98;;;;;;;;;;4978390;28;20046;-62
2023/04/26 12:39:02;;;;;;;7.95;2.08;;;;;;;;;;4974682;28;20085;-63
2023/04/26 12:41:28;;;;;;;3.80;1.90;;;;;;;;;;4984049;28;20050;-63
2023/04/26 12:43:54;;;;;;;4.65;1.67;;;;;;;;;;4977968;28;20034;-62
2023/04/26 12:46:20;;;;;;;5.75;2.03;;;;;;;;;;4976044;28;20047;-62
2023/04/26 12:48:47;;;;;;;7.38;1.90;;;;;;;;;;4985524;28;20054;-62
2023/04/26 12:51:13;;;;;;;4.35;1.60;;;;;;;;;;4980261;28;20057;-62
2023/04/26 12:53:39;;;;;;;6.80;2.20;;;;;;;;;;4959740;28;20454;-63
2023/04/26 12:56:05;;;;;;;3.20;1.75;;;;;;;;;;4979151;28;20054;-63
2023/04/26 12:58:31;;;;;;;7.75;1.80;;;;;;;;;;4982690;28;20051;-62
2023/04/26 13:00:57;;;;;;;5.93;2.25;;;;;;;;;;4971802;28;20047;-63
2023/04/26 13:03:24;;;;;;;7.47;1.73;;;;;;;;;;4978267;28;20038;-64
2023/04/26 13:05:51;;;;;;;13.75;1.77;;;;;;;;;;4974302;28;20131;-63
2023/04/26 13:08:17;;;;;;;2.72;1.20;;;;;;;;;;4974860;28;20513;-64
2023/04/26 13:10:43;;;;;;;6.07;2.08;;;;;;;;;;4974153;28;20582;-63
2023/04/26 13:13:09;;;;;;;6.85;1.40;;;;;;;;;;4976235;28;20057;-63
2023/04/26 13:15:35;;;;;;;6.25;1.60;;;;;;;;;;4975553;28;20081;-63
2023/04/26 13:18:03;;;;;;;6.75;1.70;;;;;;;;;;4981409;28;20053;-64
2023/04/26 13:20:29;;;;;;;3.80;1.80;;;;;;;;;;4985328;28;20053;-64
2023/04/26 13:22:55;;;;;;;5.75;1.85;;;;;;;;;;4976362;28;20109;-63
2023/04/26 13:25:22;;;;;;;7.82;1.88;;;;;;;;;;4976742;28;20069;-63
2023/04/26 13:27:52;;;;;;;9.48;1.65;;;;;;;;;;4984575;28;20050;-63
2023/04/26 13:30:18;;;;;;;7.32;1.88;;;;;;;;;;4982923;28;20073;-63
2023/04/26 13:32:44;;;;;;;4.43;1.30;;;;;;;;;;4973916;28;20485;-63
2023/04/26 13:35:11;;;;;;;6.00;2.15;;;;;;;;;;4974706;28;20518;-63
2023/04/26 13:37:37;;;;;;;4.53;1.80;;;;;;;;;;4964389;28;20046;-64
2023/04/26 13:40:04;;;;;;;8.80;2.30;;;;;;;;;;4974732;28;20038;-63
2023/04/26 13:42:31;;;;;;;5.75;1.75;;;;;;;;;;4985609;28;20370;-63
2023/04/26 13:44:57;;;;;;;6.13;1.65;;;;;;;;;;4985750;28;20484;-63
2023/04/26 13:47:23;;;;;;;5.85;1.92;;;;;;;;;;4967825;28;20054;-61
2023/04/26 13:49:49;;;;;;;3.55;1.40;;;;;;;;;;4975836;28;20050;-61
2023/04/26 13:52:16;;;;;;;5.57;1.75;;;;;;;;;;4973144;28;20097;-61
2023/04/26 13:54:42;;;;;;;6.10;1.55;;;;;;;;;;4971584;28;20429;-62
2023/04/26 13:57:08;;;;;;;8.02;2.28;;;;;;;;;;4980568;28;21022;-61
2023/04/26 13:59:34;;;;;;;7.20;1.70;;;;;;;;;;4976322;28;20039;-62
2023/04/26 14:02:00;;;;;;;4.63;1.70;;;;;;;;;;4974074;28;20034;-62
2023/04/26 14:04:26;;;;;;;7.82;2.05;;;;;;;;;;4982434;28;20050;-62
2023/04/26 14:06:52;;;;;;;7.20;1.63;;;;;;;;;;4959568;28;20056;-62
2023/04/26 14:09:18;;;;;;;5.25;1.40;;;;;;;;;;4982938;28;20064;-62
2023/04/26 14:11:45;;;;;;;4.50;1.60;;;;;;;;;;4982977;28;20133;-62
2023/04/26 14:14:11;;;;;;;7.93;2.05;;;;;;;;;;4977833;28;20093;-62
2023/04/26 14:16:37;;;;;;;4.30;1.50;;;;;;;;;;4973918;28;20042;-62
2023/04/26 14:19:03;;;;;;;9.80;2.75;;;;;;;;;;4983635;28;20057;-62
2023/04/26 14:21:30;;;;;;;6.63;1.65;;;;;;;;;;4985819;28;20069;-63
2023/04/26 14:23:56;;;;;;;7.75;2.13;;;;;;;;;;4983432;28;20039;-62
2023/04/26 14:26:25;;;;;;;8.93;1.95;;;;;;;;;;4985454;28;20038;-64
2023/04/26 14:28:51;;;;;;;5.82;1.70;;;;;;;;;;4984580;28;20526;-64
2023/04/26 14:31:18;;;;;;;9.15;2.15;;;;;;;;;;4984268;28;20404;-62
2023/04/26 14:33:45;;;;;;;7.82;2.20;;;;;;;;;;4978208;28;20049;-61
2023/04/26 14:36:11;;;;;;;6.22;1.63;;;;;;;;;;4981370;28;20136;-62
2023/04/26 14:38:40;;;;;;;7.93;2.03;;;;;;;;;;4984685;28;20042;-62
2023/04/26 14:41:06;;;;;;;8.73;1.80;;;;;;;;;;4980370;28;20043;-62
2023/04/26 14:43:32;;;;;;;4.05;1.40;;;;;;;;;;4981846;28;20098;-62